LEALLEVC

Guest
Details From LEAL - Alicante
To LEVC - Valencia
Flight Number -
Tags Generated
Created
Modified
Stats Distance 73 nm / 135 km
Max Altitude 0 ft / 0 m
Waypoints 2
Social Downloads 2
Likes 0
Share VATSIM

Download

Looking for another format? Having issues loading an existing format? Contact us
Advertisement - Login to hide

Notes

Generated

Route

LEAL LEVC

ID Type Via Altitude Latitude Longitude Leg Dist Tot Dist Heading (true) Name
O LEAL APT - 0 ft / 0 m 38.28452˚ -0.57500˚ - 0 nm - -
O LEVC APT - 0 ft / 0 m 39.49655˚ -0.50070˚ 72 nm 72 nm 3° / 3° -

Altitude Profile

Advertisement - Login to hide

LEAL

Details ICAO LEAL (ALC)
Name Alicante
Region Spain
Timezone Europe/Madrid (UTC+1.0)
Stats Elevation 141 ft / 43 m (AMSL)
Location 38.282169° -0.558157°
Runways 1
Magnetic Variation 0.184° E

METAR

LEAL 160830Z 30009KT CAVOK 10/M00 Q1016 NOSIG

Decode

TAF

TAF TAF LEAL 160500Z 1606/1706 32005KT 9999 FEW030 TX17/1613Z TN07/1606Z TEMPO 1606/1610 31012KT

Decode

Departure Runways

ID Width Length Bearing (true) Bearing (mag) Surface Threshold Offset Overrun Length
10 148 ft / 45 m 9,799 ft / 2,987 m 100.07° 99.89° Asphalt 0 ft / 0 m 164 ft / 50 m
28 148 ft / 45 m 9,799 ft / 2,987 m 280.09° 279.91° Asphalt 0 ft / 0 m 197 ft / 60 m

LEVC

Details ICAO LEVC (VLC)
Name Valencia
Region Spain
Timezone Europe/Madrid (UTC+1.0)
Stats Elevation 225 ft / 69 m (AMSL)
Location 39.488236° -0.483892°
Runways 2
Magnetic Variation 0.192° E

METAR

LEVC 160830Z VRB03KT CAVOK 07/00 Q1017 NOSIG

Decode

TAF

TAF LEVC 160500Z 1606/1706 27006KT 9999 FEW035 TX16/1612Z TN03/1606Z

Decode

Destination Runways

ID Width Length Bearing (true) Bearing (mag) Surface Threshold Offset Overrun Length
12 148 ft / 45 m 10,555 ft / 3,217 m 116.25° 116.06° Asphalt 0 ft / 0 m 646 ft / 197 m
22 154 ft / 47 m 3,828 ft / 1,167 m 217.99° 217.80° Asphalt 0 ft / 0 m 0 ft / 0 m
30 148 ft / 45 m 10,555 ft / 3,217 m 296.27° 296.08° Asphalt 1,001 ft / 305 m 932 ft / 284 m
4 154 ft / 47 m 3,828 ft / 1,167 m 37.98° 37.79° Asphalt 0 ft / 0 m 0 ft / 0 m

Approach Navaids

Runway Type Ident Frequency Range Bearing (true) Bearing (mag) Slope Elevation
12 Localiser VLN 111.50 MHz 25 nm / 46 km 116.20° 116.01° - 256 ft / 78 m (AMSL)
12 Glidescope VLN 111.50 MHz 10 nm / 19 km 116.20° 116.01° 3.00° 256 ft / 78 m (AMSL)
12 DME VLN 111.50 MHz 25 nm / 46 km - - - 256 ft / 78 m (AMSL)
30 Localiser IVC 110.10 MHz 18 nm / 33 km 296.19° 296.00° - 225 ft / 69 m (AMSL)
30 Glidescope IVC 110.10 MHz 10 nm / 19 km 296.26° 296.07° 3.00° 225 ft / 69 m (AMSL)
30 DME IVC 110.10 MHz 18 nm / 33 km - - - 203 ft / 62 m (AMSL)

Popular Alternatives